Terminal Aerodrome Forecast
Issued by NWS

Home | Current Version | Previous Version | Text Only | Print | Product List | Glossary On
Versions: 1 2 3 4 5 6 7 8 9 10 11 12 13 14 15 16 17 18 19 20 21 22
917
FTUS44 KMAF 201614 AAA
TAFHOB
TAF AMD
KHOB 201614Z 2016/2112 22008KT P6SM SKC
     FM201700 24015G22KT P6SM SKC
     FM210100 33010KT P6SM SCT070=

USA.gov is the U.S. government's official web portal to all federal, state and local government web resources and services.